createdAt,value
2023-02-15T00:01:13.516Z,43.70
2023-02-15T00:06:16.144Z,44.40
2023-02-15T00:11:38.232Z,44.23
2023-02-15T00:16:41.924Z,43.64
2023-02-15T00:21:48.057Z,44.06
2023-02-15T00:26:50.718Z,43.74
2023-02-15T00:31:53.603Z,43.81
2023-02-15T00:36:55.811Z,44.50
2023-02-15T00:41:58.107Z,43.91
2023-02-15T00:47:00.346Z,44.25
2023-02-15T00:52:02.536Z,44.65
2023-02-15T00:57:04.783Z,44.19
2023-02-15T01:02:06.958Z,44.56
2023-02-15T01:07:09.185Z,44.27
2023-02-15T01:12:11.378Z,44.70
2023-02-15T01:17:13.535Z,44.83
2023-02-15T01:22:15.842Z,44.95
2023-02-15T01:27:18.146Z,45.38
2023-02-15T01:32:20.387Z,45.72
2023-02-15T01:37:22.559Z,45.21
2023-02-15T01:42:26.088Z,44.90
2023-02-15T01:47:45.518Z,44.68
2023-02-15T01:53:03.291Z,44.02
2023-02-15T01:58:05.752Z,44.88
2023-02-15T02:03:08.378Z,44.11
2023-02-15T02:08:11.026Z,43.88
2023-02-15T02:13:13.328Z,44.58
2023-02-15T02:18:33.310Z,44.84
2023-02-15T02:24:01.950Z,45.33
2023-02-15T02:29:28.971Z,45.23
2023-02-15T02:34:58.172Z,45.69
2023-02-15T02:40:12.586Z,45.19
2023-02-15T02:45:52.532Z,44.73
2023-02-15T02:50:54.703Z,45.72
2023-02-15T02:56:22.791Z,45.28
2023-02-15T03:01:33.827Z,45.11
2023-02-15T03:06:52.327Z,45.25
2023-02-15T03:11:54.635Z,44.80
2023-02-15T03:16:57.707Z,45.50
2023-02-15T03:22:10.561Z,45.42
2023-02-15T03:27:19.528Z,46.91
2023-02-15T03:32:23.131Z,47.44
2023-02-15T03:37:38.835Z,47.56
2023-02-15T03:42:42.004Z,46.42
2023-02-15T03:47:48.628Z,46.86
2023-02-15T03:52:51.046Z,46.95
2023-02-15T03:58:12.466Z,46.79
2023-02-15T04:03:17.446Z,47.48
2023-02-15T04:08:19.650Z,46.64
2023-02-15T04:13:32.814Z,46.80
2023-02-15T04:18:57.545Z,47.14
2023-02-15T04:24:18.480Z,47.82
2023-02-15T04:29:24.867Z,47.31
2023-02-15T04:34:27.545Z,47.42
2023-02-15T04:39:33.611Z,46.96
2023-02-15T04:44:35.873Z,46.63
2023-02-15T04:49:38.006Z,46.61
2023-02-15T04:54:40.444Z,46.62
2023-02-15T04:59:42.746Z,46.33
2023-02-15T05:04:45.091Z,46.59
2023-02-15T05:09:47.518Z,46.96
2023-02-15T05:14:49.805Z,46.49
2023-02-15T05:19:52.164Z,45.96
2023-02-15T05:25:12.864Z,46.79
2023-02-15T05:30:15.555Z,46.48
2023-02-15T05:35:18.272Z,46.57
2023-02-15T05:40:20.397Z,46.48
2023-02-15T05:45:22.585Z,46.47
2023-02-15T05:50:24.742Z,46.42
2023-02-15T05:55:27.036Z,46.70
2023-02-15T06:00:29.184Z,47.11
2023-02-15T06:05:31.863Z,46.67
2023-02-15T06:10:34.136Z,46.81
2023-02-15T06:15:36.403Z,46.52
2023-02-15T06:20:38.700Z,45.80
2023-02-15T06:25:40.958Z,45.28
2023-02-15T06:30:43.216Z,45.30
2023-02-15T06:35:47.473Z,44.86
2023-02-15T06:40:49.767Z,44.92
2023-02-15T06:45:52.149Z,44.78
2023-02-15T06:50:54.342Z,44.46
2023-02-15T06:56:04.510Z,44.96
2023-02-15T07:01:10.367Z,44.40
2023-02-15T07:06:13.259Z,45.01
2023-02-15T07:11:33.907Z,44.86
2023-02-15T07:16:36.047Z,44.48
2023-02-15T07:21:38.569Z,44.88
2023-02-15T07:26:40.833Z,45.64
2023-02-15T07:31:47.687Z,45.37
2023-02-15T07:36:52.420Z,45.36
2023-02-15T07:41:54.837Z,44.53
2023-02-15T07:46:57.820Z,44.01
2023-02-15T07:52:02.147Z,43.50
2023-02-15T07:57:04.476Z,44.90
2023-02-15T08:02:11.509Z,44.76
2023-02-15T08:07:13.716Z,44.31
2023-02-15T08:12:15.853Z,44.58
2023-02-15T08:17:18.103Z,45.19
2023-02-15T08:22:20.273Z,43.90
2023-02-15T08:27:27.997Z,43.58
2023-02-15T08:32:30.080Z,43.38
2023-02-15T08:37:32.384Z,43.25
2023-02-15T08:42:35.696Z,43.10
2023-02-15T08:47:37.882Z,42.93
2023-02-15T08:52:40.049Z,42.27
2023-02-15T08:57:46.206Z,42.63
2023-02-15T09:02:48.381Z,42.21
2023-02-15T09:07:50.662Z,42.36
2023-02-15T09:12:53.920Z,41.98
2023-02-15T09:18:02.732Z,41.64
2023-02-15T09:23:04.944Z,42.87
2023-02-15T09:28:07.178Z,41.39
2023-02-15T09:33:09.401Z,42.19
2023-02-15T09:38:13.468Z,41.22
2023-02-15T09:43:34.563Z,40.98
2023-02-15T09:48:41.813Z,39.69
2023-02-15T09:54:12.675Z,40.11
2023-02-15T09:59:42.614Z,40.49
2023-02-15T10:05:22.132Z,39.21
2023-02-15T10:10:49.008Z,38.48
2023-02-15T10:16:17.981Z,39.16
2023-02-15T10:21:41.645Z,39.19
2023-02-15T10:26:47.836Z,38.39
2023-02-15T10:31:56.577Z,38.17
2023-02-15T10:37:10.678Z,38.14
2023-02-15T10:42:36.244Z,37.77
2023-02-15T10:47:53.679Z,37.71
2023-02-15T10:53:30.797Z,36.30
2023-02-15T10:58:35.521Z,36.59
2023-02-15T11:03:43.155Z,36.68
2023-02-15T11:08:52.943Z,36.11
2023-02-15T11:14:01.355Z,35.84
2023-02-15T11:19:49.050Z,35.53
2023-02-15T11:24:51.548Z,34.73
2023-02-15T11:30:02.324Z,35.02
2023-02-15T11:35:13.818Z,34.51
2023-02-15T11:40:29.738Z,34.63
2023-02-15T11:45:35.710Z,34.35
2023-02-15T11:50:38.533Z,34.16
2023-02-15T11:55:41.285Z,33.89
2023-02-15T12:00:47.210Z,33.55
2023-02-15T12:05:54.974Z,33.85
2023-02-15T12:11:09.486Z,33.30
2023-02-15T12:16:14.265Z,33.37
2023-02-15T12:21:30.477Z,33.22
2023-02-15T12:26:36.503Z,33.46
2023-02-15T12:31:42.103Z,33.75
2023-02-15T12:36:48.268Z,33.44
2023-02-15T12:41:56.423Z,33.54
2023-02-15T12:47:05.101Z,32.52
2023-02-15T12:52:25.602Z,33.35
2023-02-15T12:57:30.977Z,32.92
2023-02-15T13:02:49.562Z,32.78
2023-02-15T13:07:57.237Z,33.44
2023-02-15T13:12:59.889Z,33.23
2023-02-15T13:18:04.285Z,33.73
2023-02-15T13:23:14.885Z,33.35
2023-02-15T13:28:20.013Z,32.37
2023-02-15T13:33:33.110Z,32.67
2023-02-15T13:38:46.303Z,33.56
2023-02-15T13:43:52.219Z,32.55
2023-02-15T13:49:18.015Z,31.98
2023-02-15T13:54:26.423Z,31.45
2023-02-15T13:59:46.734Z,31.42
2023-02-15T14:05:18.018Z,31.15
2023-02-15T14:10:29.268Z,31.68
2023-02-15T14:15:36.066Z,31.65
2023-02-15T14:21:15.642Z,30.11
2023-02-15T14:26:35.644Z,30.38
2023-02-15T14:31:47.284Z,31.66
2023-02-15T14:36:52.261Z,31.11
2023-02-15T14:42:01.160Z,30.58
2023-02-15T14:47:13.145Z,30.18
2023-02-15T14:52:15.342Z,30.00
2023-02-15T14:57:17.595Z,29.93
2023-02-15T15:02:43.508Z,29.69
2023-02-15T15:07:59.143Z,29.42
2023-02-15T15:13:30.135Z,29.44
2023-02-15T15:18:45.732Z,29.35
2023-02-15T15:23:48.227Z,29.80
2023-02-15T15:28:50.358Z,31.23
2023-02-15T15:34:10.998Z,30.99
2023-02-15T15:39:56.494Z,31.47
2023-02-15T15:45:27.999Z,31.88
2023-02-15T15:50:30.649Z,32.64
2023-02-15T15:55:35.096Z,32.65
2023-02-15T16:00:46.165Z,32.10
2023-02-15T16:05:54.081Z,32.37
2023-02-15T16:10:56.816Z,32.54
2023-02-15T16:15:59.238Z,32.63
2023-02-15T16:21:03.010Z,32.55
2023-02-15T16:26:14.355Z,33.05
2023-02-15T16:31:17.988Z,33.08
2023-02-15T16:36:26.759Z,33.50
2023-02-15T16:41:30.765Z,33.65
2023-02-15T16:46:37.846Z,33.96
2023-02-15T16:51:45.533Z,34.42
2023-02-15T16:56:48.315Z,34.83
2023-02-15T17:01:52.580Z,35.20
2023-02-15T17:07:21.445Z,35.90
2023-02-15T17:12:56.450Z,36.08
2023-02-15T17:18:06.367Z,36.25
2023-02-15T17:23:19.689Z,36.81
2023-02-15T17:28:32.760Z,37.17
2023-02-15T17:33:35.338Z,37.51
2023-02-15T17:38:39.560Z,37.81
2023-02-15T17:43:43.411Z,37.84
2023-02-15T17:48:49.291Z,38.14
2023-02-15T17:54:10.634Z,38.32
2023-02-15T17:59:14.479Z,38.07
2023-02-15T18:04:35.117Z,38.54
2023-02-15T18:09:55.928Z,38.40
2023-02-15T18:14:59.585Z,38.77
2023-02-15T18:20:06.002Z,38.87
2023-02-15T18:25:14.957Z,39.16
2023-02-15T18:30:21.876Z,39.61
2023-02-15T18:35:31.422Z,39.47
2023-02-15T18:40:36.306Z,39.59
2023-02-15T18:45:40.502Z,40.37
2023-02-15T18:50:42.756Z,40.12
2023-02-15T18:55:45.189Z,40.85
2023-02-15T19:00:49.238Z,42.13
2023-02-15T19:05:51.499Z,41.72
2023-02-15T19:10:53.793Z,41.92
2023-02-15T19:15:56.214Z,42.18
2023-02-15T19:20:58.472Z,42.53
2023-02-15T19:26:01.820Z,42.46
2023-02-15T19:31:04.366Z,42.63
2023-02-15T19:36:17.797Z,42.60
2023-02-15T19:41:33.453Z,42.69
2023-02-15T19:46:37.398Z,43.05
2023-02-15T19:51:40.446Z,43.16
2023-02-15T19:56:42.651Z,43.34
2023-02-15T20:01:44.817Z,43.02
2023-02-15T20:06:49.224Z,43.38
2023-02-15T20:11:55.520Z,43.97
2023-02-15T20:16:57.627Z,44.17
2023-02-15T20:22:14.138Z,44.30
2023-02-15T20:27:18.612Z,44.08
2023-02-15T20:32:21.030Z,44.16
2023-02-15T20:37:29.283Z,44.12
2023-02-15T20:42:31.472Z,44.47
2023-02-15T20:47:33.589Z,45.00
2023-02-15T20:52:35.906Z,45.67
2023-02-15T20:57:38.269Z,45.81
2023-02-15T21:02:43.296Z,46.33
2023-02-15T21:07:46.151Z,46.75
2023-02-15T21:12:49.178Z,46.00
2023-02-15T21:17:51.544Z,46.10
2023-02-15T21:22:54.121Z,46.34
2023-02-15T21:27:56.395Z,45.81
2023-02-15T21:32:58.542Z,45.77
2023-02-15T21:38:00.789Z,45.95
2023-02-15T21:43:21.580Z,46.33
2023-02-15T21:48:23.807Z,45.94
2023-02-15T21:53:30.872Z,46.23
2023-02-15T21:58:36.785Z,46.05
2023-02-15T22:09:27.278Z,47.61
2023-02-15T22:14:37.662Z,47.59
2023-02-15T22:19:39.630Z,48.42
2023-02-15T22:24:42.692Z,47.75
2023-02-15T22:29:45.059Z,47.64
2023-02-15T22:34:47.445Z,46.88
2023-02-15T22:39:49.765Z,47.26
2023-02-15T22:44:54.656Z,47.48
2023-02-15T22:49:56.859Z,47.25
2023-02-15T22:54:58.967Z,47.11
2023-02-15T23:00:04.432Z,46.61
2023-02-15T23:05:06.764Z,46.84
2023-02-15T23:10:21.416Z,47.03
2023-02-15T23:15:23.672Z,48.48
2023-02-15T23:20:26.318Z,47.98
2023-02-15T23:25:28.503Z,47.42
2023-02-15T23:30:30.833Z,46.96
2023-02-15T23:35:33.573Z,47.60
2023-02-15T23:41:11.113Z,47.76
2023-02-15T23:46:25.732Z,48.36
2023-02-15T23:51:32.296Z,48.05
2023-02-15T23:56:34.841Z,47.65
